Time;durP1;ratioP1;P1;durP2;ratioP2;P2;SDS_P1;SDS_P2;PMS_P1;PMS_P2;Temp;Humidity;BMP_temperature;BMP_pressure;BME280_temperature;BME280_humidity;BME280_pressure;Samples;Min_cycle;Max_cycle;Signal;HPM_P1;HPM_P2
2023/09/19 00:00:20;;;;;;;4.53;2.87;;;;;;;;;;5009458;28;20216;-51
2023/09/19 00:02:59;;;;;;;4.57;2.80;;;;;;;;;;5010339;28;20205;-52
2023/09/19 00:05:28;;;;;;;5.83;2.70;;;;;;;;;;5008904;28;20536;-50
2023/09/19 00:07:56;;;;;;;5.23;2.73;;;;;;;;;;5009027;28;20697;-52
2023/09/19 00:10:30;;;;;;;6.47;2.60;;;;;;;;;;5008516;28;20718;-51
2023/09/19 00:12:59;;;;;;;3.53;2.30;;;;;;;;;;5004186;28;20667;-53
2023/09/19 00:15:28;;;;;;;4.47;2.83;;;;;;;;;;5007535;28;20186;-51
2023/09/19 00:17:54;;;;;;;4.00;2.43;;;;;;;;;;4989680;28;20205;-52
2023/09/19 00:20:29;;;;;;;3.27;2.60;;;;;;;;;;5004935;28;20189;-51
2023/09/19 00:22:55;;;;;;;4.40;2.60;;;;;;;;;;5007569;28;20665;-52
2023/09/19 00:25:21;;;;;;;5.43;2.90;;;;;;;;;;5006519;28;20426;-51
2023/09/19 00:27:51;;;;;;;2.97;2.60;;;;;;;;;;5015135;28;20251;-52
2023/09/19 00:30:20;;;;;;;3.77;2.43;;;;;;;;;;5007137;28;20243;-51
2023/09/19 00:32:47;;;;;;;2.77;2.20;;;;;;;;;;5007783;28;20187;-52
2023/09/19 00:35:15;;;;;;;5.97;2.87;;;;;;;;;;5006540;28;20616;-53
2023/09/19 00:37:41;;;;;;;4.13;2.80;;;;;;;;;;5004610;28;20564;-52
2023/09/19 00:40:17;;;;;;;3.60;2.80;;;;;;;;;;5006497;28;20202;-53
2023/09/19 00:42:44;;;;;;;5.53;2.63;;;;;;;;;;5008325;28;20544;-53
2023/09/19 00:45:11;;;;;;;3.63;2.63;;;;;;;;;;5009103;28;20193;-52
2023/09/19 00:47:37;;;;;;;4.00;2.60;;;;;;;;;;5001756;28;20495;-52
2023/09/19 00:50:07;;;;;;;6.30;2.77;;;;;;;;;;5008434;28;20487;-52
2023/09/19 00:52:36;;;;;;;4.37;2.63;;;;;;;;;;5006260;28;20198;-54
2023/09/19 00:55:02;;;;;;;5.50;2.50;;;;;;;;;;5007775;28;20584;-52
2023/09/19 00:57:33;;;;;;;6.87;3.33;;;;;;;;;;4989022;28;20202;-53
2023/09/19 00:59:59;;;;;;;6.17;3.23;;;;;;;;;;5007931;28;20622;-53
2023/09/19 01:02:29;;;;;;;4.10;2.40;;;;;;;;;;5004367;28;20187;-53
2023/09/19 01:04:56;;;;;;;3.63;3.00;;;;;;;;;;5008478;28;20263;-52
2023/09/19 01:07:22;;;;;;;6.90;2.90;;;;;;;;;;5004984;28;20316;-53
2023/09/19 01:09:49;;;;;;;4.90;2.60;;;;;;;;;;5006968;28;20245;-53
2023/09/19 01:12:23;;;;;;;4.57;2.80;;;;;;;;;;5004391;28;20187;-52
2023/09/19 01:14:52;;;;;;;3.13;2.53;;;;;;;;;;5002927;28;20178;-53
2023/09/19 01:17:25;;;;;;;5.23;3.10;;;;;;;;;;4997895;28;20549;-52
2023/09/19 01:20:11;;;;;;;3.90;2.73;;;;;;;;;;5001090;28;20174;-52
2023/09/19 01:22:39;;;;;;;3.80;2.60;;;;;;;;;;5001931;28;20277;-52
2023/09/19 01:25:34;;;;;;;5.03;2.67;;;;;;;;;;5004703;28;20178;-53
2023/09/19 01:28:03;;;;;;;7.47;3.30;;;;;;;;;;5004240;28;20539;-53
2023/09/19 01:30:33;;;;;;;7.60;4.23;;;;;;;;;;5005261;28;20239;-53
2023/09/19 01:33:00;;;;;;;4.00;2.80;;;;;;;;;;5004251;28;20195;-53
2023/09/19 01:35:26;;;;;;;3.60;2.57;;;;;;;;;;5005721;28;20672;-51
2023/09/19 01:37:53;;;;;;;4.67;2.87;;;;;;;;;;5003308;28;20644;-54
2023/09/19 01:40:22;;;;;;;4.47;2.90;;;;;;;;;;5006512;28;20187;-53
2023/09/19 01:42:56;;;;;;;5.37;3.50;;;;;;;;;;5001705;28;20666;-52
2023/09/19 01:45:36;;;;;;;4.20;2.47;;;;;;;;;;4989134;28;20528;-53
2023/09/19 01:48:23;;;;;;;3.73;2.90;;;;;;;;;;5003100;28;20178;-52
2023/09/19 01:50:52;;;;;;;7.13;2.97;;;;;;;;;;4996904;28;20233;-53
2023/09/19 01:53:30;;;;;;;4.63;2.60;;;;;;;;;;5000120;28;20184;-53
2023/09/19 01:55:57;;;;;;;6.60;3.07;;;;;;;;;;5003733;28;20241;-53
2023/09/19 01:58:23;;;;;;;8.13;2.93;;;;;;;;;;5004738;28;20565;-53
2023/09/19 02:00:51;;;;;;;3.93;2.83;;;;;;;;;;4998948;28;20202;-53
2023/09/19 02:03:18;;;;;;;4.73;2.60;;;;;;;;;;5003523;28;20229;-52
2023/09/19 02:05:53;;;;;;;8.13;3.67;;;;;;;;;;5000720;28;20182;-53
2023/09/19 02:08:20;;;;;;;3.03;2.73;;;;;;;;;;5003672;28;20257;-53
2023/09/19 02:10:49;;;;;;;4.47;2.70;;;;;;;;;;5004543;28;20542;-53
2023/09/19 02:13:19;;;;;;;6.33;2.87;;;;;;;;;;5003989;28;20606;-52
2023/09/19 02:15:46;;;;;;;5.03;2.83;;;;;;;;;;5004639;28;20194;-53
2023/09/19 02:18:12;;;;;;;5.00;3.13;;;;;;;;;;5006633;28;20212;-53
2023/09/19 02:20:39;;;;;;;4.57;3.03;;;;;;;;;;5005665;28;20270;-53
2023/09/19 02:23:05;;;;;;;4.97;2.67;;;;;;;;;;5006129;28;20241;-53
2023/09/19 02:25:33;;;;;;;4.70;2.67;;;;;;;;;;5007248;28;20320;-53
2023/09/19 02:28:01;;;;;;;7.10;3.17;;;;;;;;;;5007306;28;20546;-53
2023/09/19 02:30:27;;;;;;;3.90;2.53;;;;;;;;;;5007288;28;20660;-52
2023/09/19 02:32:53;;;;;;;4.63;2.50;;;;;;;;;;5008788;28;20186;-53
2023/09/19 02:35:19;;;;;;;6.53;3.37;;;;;;;;;;5010675;28;20182;-53
2023/09/19 02:37:46;;;;;;;4.83;2.47;;;;;;;;;;5008047;28;20214;-53
2023/09/19 02:40:19;;;;;;;4.93;3.13;;;;;;;;;;5010313;28;20546;-53
2023/09/19 02:42:46;;;;;;;5.40;2.50;;;;;;;;;;5009580;28;20230;-54
2023/09/19 02:45:13;;;;;;;7.03;3.27;;;;;;;;;;5009733;28;20181;-53
2023/09/19 02:47:43;;;;;;;6.97;3.27;;;;;;;;;;4992464;28;20275;-53
2023/09/19 02:50:13;;;;;;;4.57;2.50;;;;;;;;;;5009309;28;20274;-53
2023/09/19 02:52:39;;;;;;;4.10;2.83;;;;;;;;;;5009500;28;20176;-52
2023/09/19 02:55:09;;;;;;;3.97;2.80;;;;;;;;;;5009746;28;20607;-52
2023/09/19 02:57:36;;;;;;;5.57;2.50;;;;;;;;;;5007944;28;20623;-52
2023/09/19 03:00:03;;;;;;;5.70;2.93;;;;;;;;;;5010738;28;20175;-52
2023/09/19 03:02:32;;;;;;;4.50;2.57;;;;;;;;;;5008724;28;20258;-52
2023/09/19 03:05:00;;;;;;;5.30;2.37;;;;;;;;;;5010276;28;20457;-54
2023/09/19 03:07:26;;;;;;;6.00;2.77;;;;;;;;;;5007778;28;20191;-52
2023/09/19 03:09:52;;;;;;;4.83;2.80;;;;;;;;;;5009460;28;20321;-52
2023/09/19 03:12:19;;;;;;;6.50;3.03;;;;;;;;;;4990283;28;20183;-52
2023/09/19 03:14:45;;;;;;;3.50;2.37;;;;;;;;;;4992333;28;20253;-52
2023/09/19 03:17:14;;;;;;;6.33;4.83;;;;;;;;;;5007937;28;20191;-52
2023/09/19 03:19:40;;;;;;;4.13;2.63;;;;;;;;;;5008625;28;20175;-52
2023/09/19 03:22:10;;;;;;;5.77;2.80;;;;;;;;;;5007635;28;20167;-52
2023/09/19 03:24:37;;;;;;;4.90;3.03;;;;;;;;;;5008731;28;20167;-52
2023/09/19 03:27:04;;;;;;;5.20;2.43;;;;;;;;;;5008308;28;20316;-51
2023/09/19 03:29:31;;;;;;;4.30;2.60;;;;;;;;;;5004853;28;20226;-51
2023/09/19 03:31:57;;;;;;;6.57;3.83;;;;;;;;;;5001882;28;20617;-52
2023/09/19 03:34:23;;;;;;;6.70;2.77;;;;;;;;;;5007078;28;20710;-51
2023/09/19 03:36:50;;;;;;;3.77;2.57;;;;;;;;;;5007928;28;20214;-51
2023/09/19 03:39:16;;;;;;;5.50;2.80;;;;;;;;;;5007895;28;20175;-51
2023/09/19 03:41:42;;;;;;;7.07;3.23;;;;;;;;;;4998844;28;20580;-51
2023/09/19 03:44:09;;;;;;;6.33;2.90;;;;;;;;;;5009284;28;20208;-51
2023/09/19 03:46:36;;;;;;;4.10;2.50;;;;;;;;;;5003140;28;20183;-52
2023/09/19 03:49:02;;;;;;;5.30;2.63;;;;;;;;;;5007570;28;20202;-52
2023/09/19 03:51:29;;;;;;;4.20;2.67;;;;;;;;;;5007024;28;20274;-51
2023/09/19 03:53:56;;;;;;;5.67;2.80;;;;;;;;;;5008549;28;20654;-52
2023/09/19 03:56:22;;;;;;;5.90;2.37;;;;;;;;;;5007889;28;20589;-50
2023/09/19 03:58:48;;;;;;;6.13;2.77;;;;;;;;;;5008779;28;21236;-51
2023/09/19 04:01:16;;;;;;;5.90;4.00;;;;;;;;;;5008970;28;20173;-52
2023/09/19 04:03:50;;;;;;;3.87;2.37;;;;;;;;;;5009139;28;20366;-51
2023/09/19 04:06:17;;;;;;;7.07;3.40;;;;;;;;;;5008393;28;20603;-53
2023/09/19 04:08:44;;;;;;;4.50;2.60;;;;;;;;;;5007977;28;20215;-52
2023/09/19 04:11:10;;;;;;;5.70;2.23;;;;;;;;;;5007564;28;20208;-51
2023/09/19 04:13:37;;;;;;;5.07;2.87;;;;;;;;;;5008430;28;20184;-51
2023/09/19 04:16:04;;;;;;;6.40;2.47;;;;;;;;;;5013056;28;20194;-52
2023/09/19 04:18:33;;;;;;;4.17;2.30;;;;;;;;;;4993449;28;20217;-51
2023/09/19 04:21:03;;;;;;;6.07;2.50;;;;;;;;;;4999594;28;20187;-51
2023/09/19 04:23:29;;;;;;;5.20;2.53;;;;;;;;;;5007374;28;20189;-51
2023/09/19 04:25:56;;;;;;;3.60;2.53;;;;;;;;;;5008102;28;20230;-52
2023/09/19 04:28:23;;;;;;;4.87;2.43;;;;;;;;;;5007981;28;20205;-51
2023/09/19 04:30:49;;;;;;;5.20;2.50;;;;;;;;;;5006769;28;20233;-51
2023/09/19 04:33:15;;;;;;;7.67;3.67;;;;;;;;;;5005453;28;20509;-52
2023/09/19 04:35:44;;;;;;;5.70;2.90;;;;;;;;;;5003338;28;20178;-52
2023/09/19 04:38:11;;;;;;;4.80;2.73;;;;;;;;;;5004332;28;20207;-52
2023/09/19 04:40:39;;;;;;;3.47;2.60;;;;;;;;;;5002501;28;20171;-51
2023/09/19 04:43:07;;;;;;;5.03;2.83;;;;;;;;;;5003612;28;20178;-53
2023/09/19 04:45:34;;;;;;;4.17;2.43;;;;;;;;;;5007115;28;20190;-53
2023/09/19 04:48:00;;;;;;;5.73;2.53;;;;;;;;;;5008106;28;20190;-53
2023/09/19 04:50:27;;;;;;;3.87;2.33;;;;;;;;;;5006182;28;20214;-52
2023/09/19 04:52:54;;;;;;;6.27;2.57;;;;;;;;;;5007850;28;20193;-53
2023/09/19 04:55:20;;;;;;;3.70;2.20;;;;;;;;;;5006343;28;20261;-53
2023/09/19 04:57:47;;;;;;;5.40;2.57;;;;;;;;;;4986239;28;20194;-52
2023/09/19 05:00:30;;;;;;;7.20;3.20;;;;;;;;;;5006261;28;20178;-54
2023/09/19 05:02:57;;;;;;;5.47;3.00;;;;;;;;;;5007172;28;20682;-53
2023/09/19 05:05:25;;;;;;;6.97;2.80;;;;;;;;;;5005669;28;20202;-52
2023/09/19 05:07:54;;;;;;;4.70;2.60;;;;;;;;;;5005803;28;20222;-54
2023/09/19 05:10:23;;;;;;;5.53;2.47;;;;;;;;;;5005062;28;20630;-52
2023/09/19 05:12:51;;;;;;;3.83;2.50;;;;;;;;;;5003720;28;20190;-53
2023/09/19 05:15:18;;;;;;;7.17;2.53;;;;;;;;;;5001551;28;20690;-52
2023/09/19 05:17:55;;;;;;;5.67;2.60;;;;;;;;;;5005406;28;20202;-53
2023/09/19 05:20:29;;;;;;;4.03;2.97;;;;;;;;;;5003277;28;20705;-52
2023/09/19 05:23:01;;;;;;;3.47;2.47;;;;;;;;;;5005315;28;20265;-53
2023/09/19 05:25:29;;;;;;;5.17;2.60;;;;;;;;;;5000725;28;20249;-52
2023/09/19 05:27:56;;;;;;;5.93;3.27;;;;;;;;;;5001390;28;20558;-54
2023/09/19 05:30:22;;;;;;;4.67;2.97;;;;;;;;;;5006414;28;20226;-53
2023/09/19 05:32:48;;;;;;;5.23;2.67;;;;;;;;;;5003252;28;20630;-53
2023/09/19 05:35:14;;;;;;;6.27;3.50;;;;;;;;;;5006498;28;20720;-53
2023/09/19 05:37:41;;;;;;;7.77;2.53;;;;;;;;;;5000923;28;20214;-52
2023/09/19 05:40:11;;;;;;;5.77;3.03;;;;;;;;;;5002187;28;20208;-53
2023/09/19 05:42:41;;;;;;;8.57;2.77;;;;;;;;;;4980637;28;20626;-54
2023/09/19 05:45:07;;;;;;;4.57;2.50;;;;;;;;;;5003967;28;20178;-53
2023/09/19 05:47:34;;;;;;;10.60;5.17;;;;;;;;;;5006758;28;20711;-54
2023/09/19 05:50:00;;;;;;;5.33;2.77;;;;;;;;;;5007889;28;20736;-54
2023/09/19 05:52:26;;;;;;;5.73;3.43;;;;;;;;;;5002409;28;20286;-53
2023/09/19 05:54:53;;;;;;;5.97;2.83;;;;;;;;;;5004920;28;20209;-54
2023/09/19 05:57:19;;;;;;;7.53;2.87;;;;;;;;;;5000694;28;20265;-53
2023/09/19 05:59:46;;;;;;;6.10;2.80;;;;;;;;;;4987255;28;20544;-52
2023/09/19 06:02:13;;;;;;;5.97;2.47;;;;;;;;;;5004287;28;20190;-53
2023/09/19 06:04:40;;;;;;;5.57;2.77;;;;;;;;;;5004124;28;20261;-53
2023/09/19 06:07:07;;;;;;;5.60;2.70;;;;;;;;;;4986716;28;20205;-53
2023/09/19 06:09:33;;;;;;;11.43;3.70;;;;;;;;;;5006303;28;20333;-52
2023/09/19 06:12:03;;;;;;;9.43;4.97;;;;;;;;;;4987926;28;20170;-53
2023/09/19 06:14:30;;;;;;;8.00;3.80;;;;;;;;;;5004335;28;20190;-52
2023/09/19 06:16:57;;;;;;;8.10;3.20;;;;;;;;;;5007989;28;20209;-53
2023/09/19 06:19:25;;;;;;;8.80;4.03;;;;;;;;;;5010065;28;20185;-50
2023/09/19 06:21:53;;;;;;;9.83;4.70;;;;;;;;;;5009472;28;20186;-52
2023/09/19 06:24:21;;;;;;;12.23;3.60;;;;;;;;;;5003660;28;20186;-51
2023/09/19 06:26:47;;;;;;;10.07;3.30;;;;;;;;;;5000908;28;20182;-51
2023/09/19 06:29:14;;;;;;;9.03;3.13;;;;;;;;;;4989453;28;20264;-53
2023/09/19 06:31:41;;;;;;;9.10;3.60;;;;;;;;;;5008793;28;20225;-53
2023/09/19 06:34:07;;;;;;;11.13;3.33;;;;;;;;;;5007951;28;20264;-53
2023/09/19 06:36:34;;;;;;;9.40;3.17;;;;;;;;;;5008049;28;20210;-52
2023/09/19 06:39:00;;;;;;;14.23;3.13;;;;;;;;;;5005544;28;20274;-53
2023/09/19 06:41:26;;;;;;;6.33;3.17;;;;;;;;;;5004719;28;20897;-53
2023/09/19 06:43:55;;;;;;;7.87;3.07;;;;;;;;;;5010770;28;20261;-54
2023/09/19 06:46:22;;;;;;;7.43;3.10;;;;;;;;;;5009562;28;20248;-53
2023/09/19 06:48:49;;;;;;;11.20;3.20;;;;;;;;;;5010122;28;20175;-53
2023/09/19 06:51:15;;;;;;;8.43;3.20;;;;;;;;;;5010164;28;20269;-52
2023/09/19 06:53:41;;;;;;;10.37;4.03;;;;;;;;;;5003057;28;20267;-52
2023/09/19 06:56:08;;;;;;;9.10;3.87;;;;;;;;;;5005405;28;20182;-53
2023/09/19 06:58:36;;;;;;;6.40;2.80;;;;;;;;;;5010455;28;20221;-55
2023/09/19 07:01:03;;;;;;;7.87;2.87;;;;;;;;;;5006756;28;20607;-52
2023/09/19 07:03:29;;;;;;;10.00;2.90;;;;;;;;;;5006943;28;20266;-52
2023/09/19 07:05:55;;;;;;;7.37;3.07;;;;;;;;;;5013524;28;20178;-51
2023/09/19 07:08:22;;;;;;;10.97;3.37;;;;;;;;;;5006109;28;20238;-52
2023/09/19 07:10:48;;;;;;;10.70;2.67;;;;;;;;;;5009815;28;20182;-52
2023/09/19 07:13:16;;;;;;;7.93;3.33;;;;;;;;;;5006270;28;20574;-47
2023/09/19 07:15:46;;;;;;;9.37;2.77;;;;;;;;;;5008260;28;20701;-47
2023/09/19 07:18:14;;;;;;;8.57;3.23;;;;;;;;;;5007548;28;20220;-49
2023/09/19 07:20:45;;;;;;;5.60;2.83;;;;;;;;;;5006823;28;20171;-47
2023/09/19 07:23:13;;;;;;;5.57;3.63;;;;;;;;;;5002858;28;20671;-49
2023/09/19 07:25:40;;;;;;;9.07;3.57;;;;;;;;;;5002261;28;20201;-47
2023/09/19 07:28:06;;;;;;;9.50;4.40;;;;;;;;;;5007025;28;20201;-47
2023/09/19 07:30:37;;;;;;;13.30;3.83;;;;;;;;;;5007011;28;20273;-48
2023/09/19 07:33:05;;;;;;;11.57;3.60;;;;;;;;;;5004685;28;20508;-47
2023/09/19 07:35:31;;;;;;;7.27;3.60;;;;;;;;;;5010323;28;20664;-46
2023/09/19 07:37:58;;;;;;;6.43;3.23;;;;;;;;;;5008449;28;20199;-47
2023/09/19 07:40:26;;;;;;;7.93;3.33;;;;;;;;;;5006464;28;20186;-48
2023/09/19 07:42:53;;;;;;;8.50;3.67;;;;;;;;;;5005870;28;20579;-47
2023/09/19 07:45:19;;;;;;;13.93;4.10;;;;;;;;;;5006496;28;20183;-48
2023/09/19 07:47:45;;;;;;;9.17;3.40;;;;;;;;;;5006243;28;20705;-45
2023/09/19 07:50:11;;;;;;;8.10;2.73;;;;;;;;;;5005440;28;20631;-49
2023/09/19 07:52:39;;;;;;;5.67;3.20;;;;;;;;;;5006638;28;20279;-47
2023/09/19 07:55:08;;;;;;;6.17;3.90;;;;;;;;;;5001049;28;20225;-45
2023/09/19 07:57:35;;;;;;;11.00;3.47;;;;;;;;;;5004158;28;20207;-46
2023/09/19 08:00:01;;;;;;;5.17;2.90;;;;;;;;;;5003843;28;20184;-46
2023/09/19 08:02:28;;;;;;;9.77;4.00;;;;;;;;;;5005965;28;20204;-48
2023/09/19 08:04:55;;;;;;;7.73;3.13;;;;;;;;;;5004306;28;20252;-46
2023/09/19 08:07:23;;;;;;;8.27;3.30;;;;;;;;;;5004641;28;20185;-48
2023/09/19 08:09:49;;;;;;;8.80;3.60;;;;;;;;;;5005513;28;20189;-48
2023/09/19 08:12:15;;;;;;;8.93;3.13;;;;;;;;;;4986921;28;20244;-47
2023/09/19 08:14:41;;;;;;;6.57;3.00;;;;;;;;;;5008285;28;20195;-48
2023/09/19 08:17:12;;;;;;;7.43;3.70;;;;;;;;;;5006565;28;20214;-49
2023/09/19 08:19:41;;;;;;;7.40;2.97;;;;;;;;;;4986389;28;20275;-49
2023/09/19 08:22:10;;;;;;;6.30;2.80;;;;;;;;;;5006042;28;20641;-49
2023/09/19 08:24:36;;;;;;;8.73;3.30;;;;;;;;;;5002286;28;20220;-47
2023/09/19 08:27:07;;;;;;;7.33;3.13;;;;;;;;;;5007343;28;20569;-47
2023/09/19 08:29:35;;;;;;;10.17;3.30;;;;;;;;;;5001540;28;20246;-47
2023/09/19 08:32:01;;;;;;;9.80;3.27;;;;;;;;;;5001233;28;20185;-51
2023/09/19 08:34:27;;;;;;;6.07;3.27;;;;;;;;;;5006175;28;20240;-46
2023/09/19 08:36:56;;;;;;;7.67;3.33;;;;;;;;;;5008080;28;20190;-49
2023/09/19 08:39:23;;;;;;;11.13;3.00;;;;;;;;;;5006657;28;20189;-48
2023/09/19 08:41:49;;;;;;;6.20;2.80;;;;;;;;;;5000698;28;20199;-47
2023/09/19 08:44:15;;;;;;;8.37;3.00;;;;;;;;;;5005601;28;20177;-48
2023/09/19 08:46:42;;;;;;;8.60;2.97;;;;;;;;;;4997949;28;20181;-48
2023/09/19 08:49:12;;;;;;;9.73;5.13;;;;;;;;;;5008119;28;20184;-49
2023/09/19 08:51:46;;;;;;;8.90;2.87;;;;;;;;;;5007056;28;20229;-49
2023/09/19 08:54:19;;;;;;;8.30;4.03;;;;;;;;;;5008199;28;20210;-47
2023/09/19 08:56:47;;;;;;;7.57;3.10;;;;;;;;;;5005768;28;20252;-48
2023/09/19 08:59:13;;;;;;;12.80;4.27;;;;;;;;;;5005501;28;20184;-47
2023/09/19 09:01:41;;;;;;;11.07;3.37;;;;;;;;;;5000819;28;20191;-49
2023/09/19 09:04:09;;;;;;;7.90;4.90;;;;;;;;;;5009005;28;20248;-48
2023/09/19 09:06:35;;;;;;;8.83;3.23;;;;;;;;;;4990678;28;20178;-48
2023/09/19 09:09:03;;;;;;;7.70;3.00;;;;;;;;;;5003229;28;20205;-48
2023/09/19 09:11:29;;;;;;;10.37;3.13;;;;;;;;;;5003965;28;20582;-48
2023/09/19 09:13:57;;;;;;;8.07;3.10;;;;;;;;;;4998821;28;20551;-49
2023/09/19 09:16:25;;;;;;;7.43;3.03;;;;;;;;;;4996712;28;20238;-47
2023/09/19 09:18:54;;;;;;;5.57;3.20;;;;;;;;;;4990586;28;20238;-48
2023/09/19 09:21:21;;;;;;;6.87;3.53;;;;;;;;;;4997784;28;20187;-48
2023/09/19 09:23:47;;;;;;;7.33;3.00;;;;;;;;;;5005636;28;20653;-48
2023/09/19 09:26:14;;;;;;;6.40;3.20;;;;;;;;;;5003628;28;20189;-49
2023/09/19 09:28:45;;;;;;;9.13;3.43;;;;;;;;;;4989496;28;20183;-48
2023/09/19 09:31:24;;;;;;;15.60;3.77;;;;;;;;;;5008259;28;20240;-47
2023/09/19 09:33:55;;;;;;;9.70;3.53;;;;;;;;;;4999980;28;20578;-49
2023/09/19 09:36:34;;;;;;;7.13;3.10;;;;;;;;;;5008456;28;20222;-47
2023/09/19 09:39:15;;;;;;;9.53;2.97;;;;;;;;;;4993611;28;20208;-48
2023/09/19 09:41:42;;;;;;;7.83;3.10;;;;;;;;;;4997688;28;20183;-47
2023/09/19 09:44:14;;;;;;;7.57;3.10;;;;;;;;;;5007728;28;20183;-50
2023/09/19 09:49:34;;;;;;;9.77;3.00;;;;;;;;;;5004631;28;20191;-48
2023/09/19 09:52:00;;;;;;;9.57;3.33;;;;;;;;;;5003503;28;20228;-49
2023/09/19 09:54:36;;;;;;;8.50;3.30;;;;;;;;;;5006594;28;20204;-49
2023/09/19 09:57:23;;;;;;;4.23;2.83;;;;;;;;;;5006297;28;20590;-49
2023/09/19 09:59:51;;;;;;;10.70;3.27;;;;;;;;;;4985155;28;20273;-50
2023/09/19 10:02:24;;;;;;;8.80;3.17;;;;;;;;;;5003161;28;20175;-49
2023/09/19 10:04:51;;;;;;;9.97;2.90;;;;;;;;;;4988275;28;20179;-51
2023/09/19 10:07:28;;;;;;;6.87;3.07;;;;;;;;;;4998988;28;20549;-47
2023/09/19 10:10:04;;;;;;;8.37;3.90;;;;;;;;;;5006710;28;20916;-48
2023/09/19 10:12:31;;;;;;;8.17;3.40;;;;;;;;;;5001126;28;20185;-49
2023/09/19 10:14:59;;;;;;;8.33;3.07;;;;;;;;;;5004559;28;20194;-48
2023/09/19 10:17:26;;;;;;;10.07;3.43;;;;;;;;;;5003873;28;20715;-51
2023/09/19 10:19:57;;;;;;;10.67;3.70;;;;;;;;;;5007607;28;20649;-47
2023/09/19 10:22:26;;;;;;;6.77;3.33;;;;;;;;;;5005911;28;20190;-47
2023/09/19 10:24:54;;;;;;;8.93;3.43;;;;;;;;;;5004115;28;20213;-47
2023/09/19 10:27:26;;;;;;;5.33;2.93;;;;;;;;;;4999499;28;20193;-51
2023/09/19 10:29:56;;;;;;;8.73;3.63;;;;;;;;;;5003595;28;20321;-47
2023/09/19 10:32:23;;;;;;;7.73;3.17;;;;;;;;;;5004853;28;20174;-48
2023/09/19 10:34:50;;;;;;;5.70;2.83;;;;;;;;;;4984454;28;20637;-48
2023/09/19 10:37:17;;;;;;;7.13;3.30;;;;;;;;;;4998028;28;20230;-48
2023/09/19 10:39:47;;;;;;;9.17;3.00;;;;;;;;;;5001524;28;20186;-48
2023/09/19 10:42:17;;;;;;;7.00;3.00;;;;;;;;;;5005193;28;20640;-47
2023/09/19 10:44:43;;;;;;;6.63;2.97;;;;;;;;;;5005904;28;20178;-47
2023/09/19 10:47:10;;;;;;;8.67;2.90;;;;;;;;;;5006803;28;20572;-48
2023/09/19 10:49:43;;;;;;;8.83;4.30;;;;;;;;;;5000605;28;20180;-48
2023/09/19 10:52:14;;;;;;;7.17;3.40;;;;;;;;;;4979771;28;20620;-51
2023/09/19 10:54:48;;;;;;;7.77;3.17;;;;;;;;;;5000201;28;20183;-48
2023/09/19 10:57:19;;;;;;;7.63;3.53;;;;;;;;;;5008350;28;20205;-47
2023/09/19 11:00:02;;;;;;;9.33;4.00;;;;;;;;;;5004630;28;20184;-49
2023/09/19 11:02:28;;;;;;;5.77;2.80;;;;;;;;;;5007631;28;20240;-50
2023/09/19 11:04:56;;;;;;;9.03;3.30;;;;;;;;;;5009426;28;20232;-50
2023/09/19 11:07:25;;;;;;;4.47;2.77;;;;;;;;;;5006679;28;20622;-49
2023/09/19 11:09:58;;;;;;;6.33;3.13;;;;;;;;;;5007626;28;20273;-49
2023/09/19 11:12:40;;;;;;;7.57;3.07;;;;;;;;;;5010715;28;20192;-50
2023/09/19 11:15:12;;;;;;;9.40;3.00;;;;;;;;;;5011228;28;20209;-49
2023/09/19 11:17:42;;;;;;;6.93;3.47;;;;;;;;;;5010831;28;20201;-47
2023/09/19 11:22:58;;;;;;;6.83;3.20;;;;;;;;;;5007816;28;20171;-47
2023/09/19 11:25:31;;;;;;;4.97;2.90;;;;;;;;;;5006946;28;20186;-52
2023/09/19 11:30:34;;;;;;;7.43;3.37;;;;;;;;;;5003662;28;20290;-50
2023/09/19 11:33:23;;;;;;;5.13;2.93;;;;;;;;;;5007227;28;20284;-52
2023/09/19 11:36:02;;;;;;;8.17;3.40;;;;;;;;;;5001811;28;20184;-54
2023/09/19 11:38:50;;;;;;;5.50;2.87;;;;;;;;;;4999886;28;20216;-53
2023/09/19 11:41:29;;;;;;;9.43;3.43;;;;;;;;;;5000497;28;20423;-53
2023/09/19 11:44:03;;;;;;;9.27;3.30;;;;;;;;;;5008163;28;20195;-54
2023/09/19 11:46:30;;;;;;;11.50;2.83;;;;;;;;;;5002863;28;20190;-53
2023/09/19 11:49:09;;;;;;;7.47;2.93;;;;;;;;;;5007069;28;20199;-52
2023/09/19 11:51:42;;;;;;;8.37;2.93;;;;;;;;;;5005867;28;20254;-54
2023/09/19 11:54:24;;;;;;;5.83;3.10;;;;;;;;;;5010033;28;20190;-53
2023/09/19 11:56:51;;;;;;;5.60;3.07;;;;;;;;;;5012479;28;20594;-54
2023/09/19 11:59:24;;;;;;;12.30;3.27;;;;;;;;;;5008726;28;20262;-53
2023/09/19 12:02:08;;;;;;;10.93;2.43;;;;;;;;;;5002287;28;20187;-51
2023/09/19 12:04:41;;;;;;;4.37;2.90;;;;;;;;;;4985985;28;20178;-53
2023/09/19 12:07:15;;;;;;;7.47;2.97;;;;;;;;;;5009670;28;20187;-53
2023/09/19 12:09:47;;;;;;;7.47;3.20;;;;;;;;;;5000092;28;20549;-53
2023/09/19 12:12:20;;;;;;;7.23;2.73;;;;;;;;;;5005509;28;20224;-53
2023/09/19 12:14:50;;;;;;;9.30;2.80;;;;;;;;;;5001538;28;20309;-53
2023/09/19 12:17:18;;;;;;;5.30;2.90;;;;;;;;;;5004894;28;20229;-53
2023/09/19 12:20:14;;;;;;;8.37;2.83;;;;;;;;;;5008725;28;20623;-53
2023/09/19 12:22:45;;;;;;;6.30;2.80;;;;;;;;;;5006382;28;20181;-54
2023/09/19 12:25:11;;;;;;;4.83;3.10;;;;;;;;;;5008830;28;20222;-53
2023/09/19 12:27:44;;;;;;;4.00;2.60;;;;;;;;;;5005796;28;20321;-53
2023/09/19 12:30:20;;;;;;;5.37;2.80;;;;;;;;;;5006223;28;20222;-52
2023/09/19 12:32:50;;;;;;;4.23;2.97;;;;;;;;;;5006753;28;20614;-53
2023/09/19 12:35:30;;;;;;;3.50;2.53;;;;;;;;;;5008124;28;20189;-51
2023/09/19 12:37:56;;;;;;;5.40;2.60;;;;;;;;;;5004438;28;20208;-53
2023/09/19 12:40:27;;;;;;;10.30;2.83;;;;;;;;;;4995078;28;20188;-52
2023/09/19 12:42:55;;;;;;;6.47;2.47;;;;;;;;;;5015708;28;20193;-53
2023/09/19 12:45:21;;;;;;;4.97;2.73;;;;;;;;;;5006820;28;20637;-51
2023/09/19 12:48:07;;;;;;;6.77;3.00;;;;;;;;;;5013830;28;20182;-52
2023/09/19 12:50:34;;;;;;;6.53;2.93;;;;;;;;;;5005308;28;20179;-53
2023/09/19 12:53:00;;;;;;;4.67;2.93;;;;;;;;;;5006400;28;20660;-52
2023/09/19 12:55:26;;;;;;;6.50;3.20;;;;;;;;;;5005337;28;20288;-53
2023/09/19 12:58:01;;;;;;;6.53;2.53;;;;;;;;;;5011237;28;20201;-53
2023/09/19 13:00:34;;;;;;;4.73;2.47;;;;;;;;;;4999177;28;20299;-53
2023/09/19 13:03:15;;;;;;;5.27;2.17;;;;;;;;;;4997950;28;20176;-56
2023/09/19 13:05:52;;;;;;;6.47;2.50;;;;;;;;;;5004069;28;20235;-53
2023/09/19 13:08:22;;;;;;;5.03;2.87;;;;;;;;;;5005615;28;20233;-53
2023/09/19 13:11:01;;;;;;;5.40;2.90;;;;;;;;;;5007486;28;20610;-53
2023/09/19 13:13:27;;;;;;;7.43;2.77;;;;;;;;;;5010591;28;20203;-52
2023/09/19 13:15:54;;;;;;;4.23;2.40;;;;;;;;;;5008096;28;20178;-53
2023/09/19 13:18:21;;;;;;;3.63;2.20;;;;;;;;;;5006733;28;20190;-54
2023/09/19 13:21:06;;;;;;;6.10;2.53;;;;;;;;;;5006732;28;20186;-53
2023/09/19 13:23:32;;;;;;;6.07;2.40;;;;;;;;;;4986504;28;20217;-52
2023/09/19 13:25:58;;;;;;;4.87;2.43;;;;;;;;;;5004758;28;20178;-54
2023/09/19 13:28:24;;;;;;;4.37;2.83;;;;;;;;;;5006574;28;20279;-54
2023/09/19 13:30:51;;;;;;;3.40;2.33;;;;;;;;;;5008045;28;20226;-54
2023/09/19 13:33:20;;;;;;;2.87;1.97;;;;;;;;;;5004862;28;20313;-53
2023/09/19 13:35:48;;;;;;;5.13;2.47;;;;;;;;;;5007591;28;20188;-53
2023/09/19 13:38:14;;;;;;;4.20;2.47;;;;;;;;;;5008654;28;20202;-53
2023/09/19 13:40:44;;;;;;;5.80;2.13;;;;;;;;;;5006709;28;20178;-53
2023/09/19 13:43:11;;;;;;;2.57;1.93;;;;;;;;;;5005530;28;20634;-54
2023/09/19 13:45:37;;;;;;;3.53;2.20;;;;;;;;;;5004251;28;20268;-53
2023/09/19 13:48:03;;;;;;;2.10;2.00;;;;;;;;;;5005031;28;20183;-52
2023/09/19 13:50:31;;;;;;;6.50;2.13;;;;;;;;;;5001227;28;20197;-53
2023/09/19 13:53:00;;;;;;;3.23;2.03;;;;;;;;;;4990809;28;20281;-53
2023/09/19 13:55:26;;;;;;;8.13;2.57;;;;;;;;;;5012296;28;20649;-54
2023/09/19 13:57:55;;;;;;;5.30;1.90;;;;;;;;;;5010104;28;20220;-54
2023/09/19 14:00:22;;;;;;;6.47;2.60;;;;;;;;;;5005804;28;20179;-52
2023/09/19 14:02:49;;;;;;;2.97;1.97;;;;;;;;;;5006006;28;20630;-53
2023/09/19 14:05:16;;;;;;;3.73;1.83;;;;;;;;;;5010842;28;20576;-54
2023/09/19 14:07:46;;;;;;;3.10;1.83;;;;;;;;;;5007158;28;20183;-54
2023/09/19 14:10:13;;;;;;;2.97;1.87;;;;;;;;;;4984300;28;20534;-54
2023/09/19 14:12:40;;;;;;;3.07;1.57;;;;;;;;;;5006695;28;20626;-55
2023/09/19 14:15:08;;;;;;;5.00;1.90;;;;;;;;;;5004981;28;20252;-55
2023/09/19 14:17:34;;;;;;;4.97;2.10;;;;;;;;;;5003472;28;20202;-53
2023/09/19 14:20:00;;;;;;;3.10;1.80;;;;;;;;;;5004276;28;20178;-54
2023/09/19 14:22:26;;;;;;;2.13;1.50;;;;;;;;;;5012312;28;20210;-52
2023/09/19 14:24:52;;;;;;;3.10;1.90;;;;;;;;;;5001738;28;20540;-54
2023/09/19 14:27:19;;;;;;;5.40;1.73;;;;;;;;;;5007495;28;20190;-53
2023/09/19 14:29:45;;;;;;;5.30;2.03;;;;;;;;;;5006045;28;20348;-53
2023/09/19 14:32:12;;;;;;;3.47;1.90;;;;;;;;;;5008489;28;20175;-53
2023/09/19 14:34:41;;;;;;;2.27;1.60;;;;;;;;;;5013513;28;20193;-54
2023/09/19 14:37:08;;;;;;;3.87;1.70;;;;;;;;;;5016637;28;20195;-54
2023/09/19 14:39:34;;;;;;;4.70;1.90;;;;;;;;;;5007413;28;20181;-55
2023/09/19 14:42:00;;;;;;;3.83;1.97;;;;;;;;;;5008498;28;20237;-55
2023/09/19 14:44:28;;;;;;;4.53;1.80;;;;;;;;;;5009046;28;20239;-53
2023/09/19 14:46:54;;;;;;;3.00;1.80;;;;;;;;;;5005543;28;20646;-53
2023/09/19 14:49:20;;;;;;;2.20;1.40;;;;;;;;;;5009713;28;20221;-54
2023/09/19 14:51:52;;;;;;;3.53;1.73;;;;;;;;;;4985765;28;20217;-55
2023/09/19 14:54:18;;;;;;;3.07;1.90;;;;;;;;;;5008622;28;20189;-53
2023/09/19 14:56:45;;;;;;;4.10;1.93;;;;;;;;;;5008262;28;20758;-54
2023/09/19 14:59:12;;;;;;;2.43;1.70;;;;;;;;;;5007903;28;20255;-54
2023/09/19 15:01:38;;;;;;;4.30;1.53;;;;;;;;;;5005893;28;20181;-55